Time;durP1;ratioP1;P1;durP2;ratioP2;P2;SDS_P1;SDS_P2;PMS_P1;PMS_P2;Temp;Humidity;BMP_temperature;BMP_pressure;BME280_temperature;BME280_humidity;BME280_pressure;Samples;Min_cycle;Max_cycle;Signal;HPM_P1;HPM_P2
2023/09/16 00:01:20;;;;;;;2.95;2.65;;;;;;;;;;5073104;28;20071;-85
2023/09/16 00:03:46;;;;;;;3.03;2.72;;;;;;;;;;5060678;28;20467;-84
2023/09/16 00:06:12;;;;;;;3.58;2.33;;;;;;;;;;5067808;28;20037;-84
2023/09/16 00:08:38;;;;;;;4.75;2.33;;;;;;;;;;5066394;28;20460;-84
2023/09/16 00:11:04;;;;;;;3.00;2.50;;;;;;;;;;5069189;28;20126;-84
2023/09/16 00:13:29;;;;;;;3.15;2.30;;;;;;;;;;5082224;28;20055;-85
2023/09/16 00:15:55;;;;;;;3.83;2.50;;;;;;;;;;5068747;28;20083;-85
2023/09/16 00:18:21;;;;;;;3.17;2.88;;;;;;;;;;5064121;28;20037;-85
2023/09/16 00:20:49;;;;;;;3.20;2.85;;;;;;;;;;5076663;28;20489;-84
2023/09/16 00:23:18;;;;;;;7.20;4.55;;;;;;;;;;5066419;28;20086;-85
2023/09/16 00:25:45;;;;;;;5.38;4.20;;;;;;;;;;5072985;28;20032;-84
2023/09/16 00:28:11;;;;;;;4.10;3.47;;;;;;;;;;5075995;28;20039;-85
2023/09/16 00:30:39;;;;;;;4.57;3.47;;;;;;;;;;5072282;28;20037;-85
2023/09/16 00:33:05;;;;;;;5.07;3.15;;;;;;;;;;5076885;28;20074;-84
2023/09/16 00:35:31;;;;;;;4.03;3.33;;;;;;;;;;5072158;28;20036;-84
2023/09/16 00:37:57;;;;;;;5.35;4.00;;;;;;;;;;5065543;28;20025;-84
2023/09/16 00:40:22;;;;;;;6.07;3.33;;;;;;;;;;5064345;28;20116;-84
2023/09/16 00:42:48;;;;;;;5.03;3.60;;;;;;;;;;5063129;28;20499;-84
2023/09/16 00:45:14;;;;;;;5.28;3.20;;;;;;;;;;5058211;28;20538;-84
2023/09/16 00:47:41;;;;;;;4.28;3.08;;;;;;;;;;5070413;28;20029;-84
2023/09/16 00:50:13;;;;;;;4.80;3.85;;;;;;;;;;5063467;28;20021;-83
2023/09/16 00:52:59;;;;;;;4.50;3.42;;;;;;;;;;5059407;28;20427;-84
2023/09/16 00:55:27;;;;;;;4.53;3.40;;;;;;;;;;5059088;28;20037;-84
2023/09/16 00:57:55;;;;;;;5.97;3.10;;;;;;;;;;5057100;28;20028;-84
2023/09/16 01:00:23;;;;;;;5.20;2.70;;;;;;;;;;5074551;28;20469;-85
2023/09/16 01:02:49;;;;;;;3.50;2.80;;;;;;;;;;5057925;28;20040;-84
2023/09/16 01:05:15;;;;;;;5.05;3.00;;;;;;;;;;5063121;28;20028;-85
2023/09/16 01:07:41;;;;;;;3.00;2.70;;;;;;;;;;5067513;28;20083;-83
2023/09/16 01:10:10;;;;;;;5.03;3.28;;;;;;;;;;5080768;28;20066;-84
2023/09/16 01:12:39;;;;;;;4.03;3.00;;;;;;;;;;5046080;28;20028;-85
2023/09/16 01:15:06;;;;;;;4.57;3.45;;;;;;;;;;5059117;28;20115;-85
2023/09/16 01:17:54;;;;;;;4.00;3.42;;;;;;;;;;5061768;28;20045;-85
2023/09/16 01:20:21;;;;;;;8.20;3.85;;;;;;;;;;5055178;28;20028;-84
2023/09/16 01:22:49;;;;;;;4.70;3.50;;;;;;;;;;5056480;28;20037;-85
2023/09/16 01:25:15;;;;;;;4.03;3.10;;;;;;;;;;5067487;28;20477;-84
2023/09/16 01:27:42;;;;;;;5.60;3.53;;;;;;;;;;5071156;28;20036;-84
2023/09/16 01:30:08;;;;;;;6.53;3.58;;;;;;;;;;5062464;28;20020;-85
2023/09/16 01:32:39;;;;;;;4.15;3.10;;;;;;;;;;5058055;28;20082;-85
2023/09/16 01:35:08;;;;;;;6.22;2.70;;;;;;;;;;5067246;28;20115;-84
2023/09/16 01:37:33;;;;;;;5.28;2.90;;;;;;;;;;5057654;28;20043;-84
2023/09/16 01:40:00;;;;;;;5.05;2.90;;;;;;;;;;5063296;28;20103;-84
2023/09/16 01:42:30;;;;;;;3.00;2.60;;;;;;;;;;5070241;28;20055;-84
2023/09/16 01:44:56;;;;;;;3.78;2.83;;;;;;;;;;5067309;28;20386;-84
2023/09/16 01:47:21;;;;;;;3.40;2.65;;;;;;;;;;5082127;28;20146;-84
2023/09/16 01:49:47;;;;;;;4.25;2.88;;;;;;;;;;5070855;28;20128;-84
2023/09/16 01:52:16;;;;;;;7.05;3.08;;;;;;;;;;5056821;28;20090;-84
2023/09/16 01:54:42;;;;;;;3.50;2.50;;;;;;;;;;5061935;28;20024;-84
2023/09/16 01:57:07;;;;;;;4.50;3.38;;;;;;;;;;5070088;28;20107;-82
2023/09/16 01:59:33;;;;;;;5.82;2.85;;;;;;;;;;5055106;28;20119;-84
2023/09/16 02:01:58;;;;;;;3.13;2.80;;;;;;;;;;5067679;28;20088;-84
2023/09/16 02:04:23;;;;;;;3.70;3.10;;;;;;;;;;5057904;28;20371;-84
2023/09/16 02:06:50;;;;;;;4.97;3.38;;;;;;;;;;5063519;28;20029;-84
2023/09/16 02:09:16;;;;;;;3.60;2.60;;;;;;;;;;5077946;28;20025;-84
2023/09/16 02:11:42;;;;;;;4.18;3.15;;;;;;;;;;5051498;28;20060;-84
2023/09/16 02:14:18;;;;;;;6.22;3.50;;;;;;;;;;5057468;28;20039;-84
2023/09/16 02:16:47;;;;;;;6.45;3.03;;;;;;;;;;5063201;28;20033;-84
2023/09/16 02:19:12;;;;;;;6.30;2.97;;;;;;;;;;5050500;28;20033;-84
2023/09/16 02:21:38;;;;;;;4.22;3.60;;;;;;;;;;5054322;28;20587;-84
2023/09/16 02:24:04;;;;;;;12.50;4.20;;;;;;;;;;5036743;28;20035;-84
2023/09/16 02:26:30;;;;;;;12.57;3.80;;;;;;;;;;5066618;28;20032;-85
2023/09/16 02:28:55;;;;;;;9.20;3.60;;;;;;;;;;5065708;28;20059;-85
2023/09/16 02:31:27;;;;;;;9.13;3.10;;;;;;;;;;5071459;28;20082;-85
2023/09/16 02:33:58;;;;;;;;;;;;;;;;;;5067655;28;20021;-82
2023/09/16 02:36:23;;;;;;;12.50;2.90;;;;;;;;;;5056759;28;19947;-85
2023/09/16 02:38:51;;;;;;;7.03;3.30;;;;;;;;;;5071118;28;20036;-85
2023/09/16 02:41:18;;;;;;;4.93;2.80;;;;;;;;;;5073604;28;20036;-85
2023/09/16 02:43:46;;;;;;;4.45;3.35;;;;;;;;;;5075105;28;20035;-84
2023/09/16 02:46:13;;;;;;;4.82;3.92;;;;;;;;;;5082066;28;20388;-84
2023/09/16 02:48:39;;;;;;;3.90;3.30;;;;;;;;;;5077563;28;20040;-84
2023/09/16 02:51:04;;;;;;;3.42;3.00;;;;;;;;;;5061951;28;20025;-84
2023/09/16 02:53:30;;;;;;;3.80;3.40;;;;;;;;;;5066583;28;20063;-84
2023/09/16 02:55:56;;;;;;;4.32;3.35;;;;;;;;;;5072001;28;20036;-84
2023/09/16 02:58:22;;;;;;;3.80;3.20;;;;;;;;;;5076825;28;20107;-83
2023/09/16 03:00:48;;;;;;;5.97;3.35;;;;;;;;;;5074189;28;20028;-84
2023/09/16 03:03:15;;;;;;;6.70;3.17;;;;;;;;;;5078274;28;20037;-84
2023/09/16 03:05:45;;;;;;;5.47;3.58;;;;;;;;;;5088432;28;20036;-84
2023/09/16 03:08:11;;;;;;;4.20;3.35;;;;;;;;;;5069741;28;20549;-84
2023/09/16 03:10:37;;;;;;;5.15;3.38;;;;;;;;;;5062888;28;20445;-84
2023/09/16 03:13:02;;;;;;;4.75;3.30;;;;;;;;;;5078949;28;20025;-84
2023/09/16 03:15:28;;;;;;;4.03;3.13;;;;;;;;;;5073789;28;20072;-84
2023/09/16 03:17:54;;;;;;;5.38;3.40;;;;;;;;;;5070358;28;20053;-83
2023/09/16 03:20:19;;;;;;;4.93;3.22;;;;;;;;;;5076886;28;20032;-84
2023/09/16 03:22:46;;;;;;;3.83;3.15;;;;;;;;;;5070094;28;20501;-83
2023/09/16 03:25:11;;;;;;;5.30;3.05;;;;;;;;;;5066815;28;20025;-84
2023/09/16 03:27:37;;;;;;;3.85;3.10;;;;;;;;;;5051113;28;20542;-84
2023/09/16 03:30:04;;;;;;;4.22;3.40;;;;;;;;;;5056351;28;20033;-83
2023/09/16 03:32:29;;;;;;;5.20;4.10;;;;;;;;;;5061597;28;20016;-83
2023/09/16 03:34:56;;;;;;;6.90;4.55;;;;;;;;;;5062516;28;20032;-83
2023/09/16 03:37:22;;;;;;;32.55;5.38;;;;;;;;;;5062084;28;20032;-84
2023/09/16 03:39:47;;;;;;;9.55;5.05;;;;;;;;;;5059859;28;20032;-84
2023/09/16 03:42:13;;;;;;;32.80;6.03;;;;;;;;;;5074578;28;20036;-83
2023/09/16 03:44:39;;;;;;;17.75;6.45;;;;;;;;;;5056171;28;20028;-83
2023/09/16 03:47:06;;;;;;;37.10;6.47;;;;;;;;;;5063106;28;20021;-84
2023/09/16 03:49:34;;;;;;;16.90;5.65;;;;;;;;;;5070405;28;20085;-83
2023/09/16 03:52:00;;;;;;;20.52;6.00;;;;;;;;;;5071827;28;20033;-83
2023/09/16 03:54:27;;;;;;;31.58;5.90;;;;;;;;;;5071662;28;20056;-83
2023/09/16 03:56:53;;;;;;;28.65;5.95;;;;;;;;;;5077866;28;20478;-84
2023/09/16 03:59:18;;;;;;;18.65;6.15;;;;;;;;;;5072320;28;20035;-84
2023/09/16 04:01:44;;;;;;;53.65;5.80;;;;;;;;;;5055621;28;20029;-84
2023/09/16 04:04:09;;;;;;;62.40;6.43;;;;;;;;;;5058825;28;20028;-83
2023/09/16 04:06:35;;;;;;;28.35;5.75;;;;;;;;;;5056872;28;20406;-83
2023/09/16 04:09:00;;;;;;;21.50;6.05;;;;;;;;;;5059139;28;20111;-84
2023/09/16 04:11:27;;;;;;;18.38;5.93;;;;;;;;;;5076558;28;20033;-83
2023/09/16 04:13:53;;;;;;;7.10;5.50;;;;;;;;;;5066810;28;20012;-83
2023/09/16 04:16:19;;;;;;;26.20;5.00;;;;;;;;;;5063072;28;20025;-84
2023/09/16 04:18:45;;;;;;;6.00;4.93;;;;;;;;;;5074419;28;20427;-83
2023/09/16 04:21:10;;;;;;;6.95;4.80;;;;;;;;;;5055660;28;20486;-83
2023/09/16 04:23:35;;;;;;;13.60;5.00;;;;;;;;;;5059481;28;20115;-84
2023/09/16 04:26:05;;;;;;;9.13;5.00;;;;;;;;;;5072008;28;20052;-84
2023/09/16 04:28:31;;;;;;;6.32;5.10;;;;;;;;;;5078589;28;20040;-83
2023/09/16 04:30:58;;;;;;;8.23;5.13;;;;;;;;;;5054962;28;20017;-85
2023/09/16 04:33:28;;;;;;;6.93;5.82;;;;;;;;;;5082534;28;20377;-83
2023/09/16 04:35:53;;;;;;;22.52;6.20;;;;;;;;;;5071387;28;20500;-84
2023/09/16 04:38:22;;;;;;;17.67;4.63;;;;;;;;;;5054457;28;20033;-84
2023/09/16 04:40:49;;;;;;;5.13;4.38;;;;;;;;;;5068548;28;20141;-83
2023/09/16 04:43:15;;;;;;;6.72;4.55;;;;;;;;;;5056924;28;20055;-83
2023/09/16 04:45:44;;;;;;;11.45;4.70;;;;;;;;;;5068500;28;20408;-83
2023/09/16 04:48:14;;;;;;;13.20;4.22;;;;;;;;;;5071894;28;20416;-83
2023/09/16 04:50:48;;;;;;;10.00;4.47;;;;;;;;;;5074988;28;20497;-83
2023/09/16 04:53:14;;;;;;;13.52;4.85;;;;;;;;;;5062106;28;20025;-83
2023/09/16 04:55:41;;;;;;;16.02;4.32;;;;;;;;;;5063239;28;20685;-83
2023/09/16 04:58:07;;;;;;;5.32;4.57;;;;;;;;;;5060512;28;20064;-83
2023/09/16 05:00:33;;;;;;;7.18;4.32;;;;;;;;;;5071646;28;20436;-83
2023/09/16 05:03:01;;;;;;;6.47;4.43;;;;;;;;;;5072510;28;20061;-83
2023/09/16 05:05:27;;;;;;;3.72;3.40;;;;;;;;;;5071914;28;20494;-83
2023/09/16 05:07:52;;;;;;;3.90;3.50;;;;;;;;;;5078811;28;20039;-83
2023/09/16 05:10:18;;;;;;;5.07;3.70;;;;;;;;;;5040825;28;20033;-83
2023/09/16 05:12:44;;;;;;;4.20;3.63;;;;;;;;;;5069900;28;20118;-85
2023/09/16 05:15:12;;;;;;;4.43;3.90;;;;;;;;;;5069565;28;20160;-84
2023/09/16 05:17:40;;;;;;;4.95;3.75;;;;;;;;;;5070044;28;20043;-83
2023/09/16 05:20:06;;;;;;;4.40;3.83;;;;;;;;;;5064539;28;20020;-84
2023/09/16 05:22:32;;;;;;;4.40;4.00;;;;;;;;;;5076104;28;20033;-83
2023/09/16 05:24:58;;;;;;;4.80;4.10;;;;;;;;;;5067454;28;20025;-83
2023/09/16 05:27:25;;;;;;;4.45;4.05;;;;;;;;;;5068181;28;20549;-83
2023/09/16 05:29:52;;;;;;;4.70;3.92;;;;;;;;;;5057333;28;20068;-85
2023/09/16 05:32:18;;;;;;;6.20;4.63;;;;;;;;;;5066033;28;20024;-84
2023/09/16 05:34:44;;;;;;;5.18;4.32;;;;;;;;;;5077637;28;20023;-83
2023/09/16 05:37:10;;;;;;;4.68;4.18;;;;;;;;;;5048183;28;20032;-83
2023/09/16 05:39:35;;;;;;;4.20;3.80;;;;;;;;;;5075025;28;20102;-83
2023/09/16 05:42:02;;;;;;;4.53;4.13;;;;;;;;;;5060739;28;20490;-83
2023/09/16 05:44:27;;;;;;;5.07;4.10;;;;;;;;;;5067736;28;20036;-85
2023/09/16 05:46:53;;;;;;;5.00;4.15;;;;;;;;;;5076075;28;20036;-83
2023/09/16 05:49:20;;;;;;;4.72;4.18;;;;;;;;;;5062541;28;20033;-83
2023/09/16 05:51:46;;;;;;;4.68;4.10;;;;;;;;;;5072111;28;20482;-85
2023/09/16 05:54:14;;;;;;;3.92;3.50;;;;;;;;;;5061560;28;20355;-84
2023/09/16 05:56:42;;;;;;;4.35;3.95;;;;;;;;;;5084802;28;20128;-84
2023/09/16 05:59:08;;;;;;;5.55;4.30;;;;;;;;;;5065877;28;20021;-84
2023/09/16 06:01:37;;;;;;;4.25;3.85;;;;;;;;;;5051214;28;20489;-84
2023/09/16 06:04:03;;;;;;;4.45;4.05;;;;;;;;;;5069303;28;20056;-83
2023/09/16 06:06:29;;;;;;;4.35;3.83;;;;;;;;;;5053410;28;20041;-82
2023/09/16 06:08:55;;;;;;;4.20;3.80;;;;;;;;;;5053067;28;20039;-83
2023/09/16 06:11:22;;;;;;;4.32;3.92;;;;;;;;;;5078156;28;20043;-85
2023/09/16 06:13:48;;;;;;;5.03;3.60;;;;;;;;;;5068070;28;20029;-86
2023/09/16 06:16:14;;;;;;;3.85;3.17;;;;;;;;;;5067632;28;20025;-83
2023/09/16 06:18:40;;;;;;;4.10;3.50;;;;;;;;;;5072264;28;20123;-83
2023/09/16 06:21:05;;;;;;;4.25;3.10;;;;;;;;;;5061890;28;20024;-84
2023/09/16 06:23:31;;;;;;;4.60;3.10;;;;;;;;;;5070391;28;20059;-84
2023/09/16 06:25:58;;;;;;;4.57;3.30;;;;;;;;;;5070878;28;20024;-83
2023/09/16 06:28:26;;;;;;;6.53;3.70;;;;;;;;;;5074910;28;20036;-82
2023/09/16 06:30:51;;;;;;;4.90;3.60;;;;;;;;;;5063505;28;20052;-84
2023/09/16 06:33:18;;;;;;;5.35;3.22;;;;;;;;;;5087097;28;20021;-85
2023/09/16 06:35:44;;;;;;;7.30;4.10;;;;;;;;;;5056962;28;20039;-81
2023/09/16 06:38:10;;;;;;;4.95;3.45;;;;;;;;;;5065448;28;20052;-85
2023/09/16 06:40:37;;;;;;;5.22;3.90;;;;;;;;;;5067583;28;20468;-85
2023/09/16 06:43:02;;;;;;;6.00;3.83;;;;;;;;;;5069809;28;20032;-85
2023/09/16 06:45:28;;;;;;;4.93;3.30;;;;;;;;;;5061218;28;20047;-84
2023/09/16 06:47:56;;;;;;;4.30;3.05;;;;;;;;;;5061523;28;20036;-88
2023/09/16 06:50:21;;;;;;;5.18;3.47;;;;;;;;;;5061067;28;20040;-84
2023/09/16 06:52:46;;;;;;;4.72;3.70;;;;;;;;;;5072887;28;20043;-84
2023/09/16 06:55:12;;;;;;;4.10;3.50;;;;;;;;;;5069247;28;20058;-84
2023/09/16 06:57:37;;;;;;;5.20;4.07;;;;;;;;;;5065017;28;20398;-87
2023/09/16 07:00:03;;;;;;;5.80;3.65;;;;;;;;;;5062206;28;20045;-83
2023/09/16 07:02:29;;;;;;;3.08;2.78;;;;;;;;;;5065277;28;20033;-83
2023/09/16 07:04:55;;;;;;;4.07;2.88;;;;;;;;;;5065432;28;20041;-82
2023/09/16 07:07:23;;;;;;;3.90;2.95;;;;;;;;;;5060587;28;20119;-83
2023/09/16 07:09:52;;;;;;;3.30;3.00;;;;;;;;;;5063749;28;20055;-81
2023/09/16 07:12:18;;;;;;;5.43;3.30;;;;;;;;;;5081867;28;20032;-84
2023/09/16 07:14:43;;;;;;;8.40;3.58;;;;;;;;;;5076420;28;20013;-84
2023/09/16 07:17:08;;;;;;;4.97;4.07;;;;;;;;;;5074562;28;20083;-85
2023/09/16 07:19:34;;;;;;;6.10;4.15;;;;;;;;;;5071775;28;20044;-86
2023/09/16 07:22:00;;;;;;;5.72;4.63;;;;;;;;;;5077418;28;20036;-83
2023/09/16 07:24:26;;;;;;;9.10;4.80;;;;;;;;;;5089917;28;20047;-83
2023/09/16 07:26:51;;;;;;;7.03;4.55;;;;;;;;;;5073467;28;20045;-83
2023/09/16 07:29:19;;;;;;;5.85;4.22;;;;;;;;;;5071974;28;20040;-83
2023/09/16 07:31:45;;;;;;;5.05;4.10;;;;;;;;;;5087408;28;20052;-84
2023/09/16 07:34:10;;;;;;;6.32;4.53;;;;;;;;;;5082663;28;20028;-85
2023/09/16 07:36:36;;;;;;;5.82;4.35;;;;;;;;;;5087957;28;20102;-85
2023/09/16 07:39:01;;;;;;;7.50;4.55;;;;;;;;;;5081213;28;20449;-85
2023/09/16 07:41:27;;;;;;;5.50;4.72;;;;;;;;;;5078961;28;20032;-86
2023/09/16 07:43:52;;;;;;;5.55;4.15;;;;;;;;;;5075937;28;20025;-83
2023/09/16 07:46:18;;;;;;;5.82;4.50;;;;;;;;;;5073937;28;20052;-84
2023/09/16 07:48:44;;;;;;;5.75;4.60;;;;;;;;;;5071682;28;20088;-84
2023/09/16 07:51:10;;;;;;;5.57;4.10;;;;;;;;;;5085873;28;20789;-85
2023/09/16 07:53:35;;;;;;;7.22;4.30;;;;;;;;;;5083381;28;20023;-85
2023/09/16 07:56:01;;;;;;;4.97;4.20;;;;;;;;;;5076797;28;20059;-85
2023/09/16 07:58:26;;;;;;;6.28;4.35;;;;;;;;;;5071562;28;20086;-83
2023/09/16 08:00:53;;;;;;;4.80;4.03;;;;;;;;;;5077933;28;20036;-83
2023/09/16 08:03:19;;;;;;;6.28;4.20;;;;;;;;;;5076952;28;20104;-84
2023/09/16 08:05:44;;;;;;;4.20;3.80;;;;;;;;;;5075115;28;20041;-84
2023/09/16 08:08:10;;;;;;;6.22;3.80;;;;;;;;;;5073359;28;20032;-86
2023/09/16 08:10:35;;;;;;;5.00;4.05;;;;;;;;;;5074936;28;20036;-85
2023/09/16 08:13:00;;;;;;;5.90;3.58;;;;;;;;;;5078869;28;20109;-85
2023/09/16 08:15:26;;;;;;;4.28;3.45;;;;;;;;;;5078158;28;20036;-85
2023/09/16 08:17:52;;;;;;;4.35;3.58;;;;;;;;;;5092020;28;20573;-83
2023/09/16 08:20:20;;;;;;;4.97;3.50;;;;;;;;;;5080830;28;20067;-84
2023/09/16 08:22:46;;;;;;;4.85;3.45;;;;;;;;;;5087145;28;20176;-83
2023/09/16 08:25:12;;;;;;;4.57;3.40;;;;;;;;;;5075901;28;20033;-84
2023/09/16 08:27:40;;;;;;;4.88;3.70;;;;;;;;;;5071943;28;20037;-86
2023/09/16 08:30:06;;;;;;;5.05;3.50;;;;;;;;;;5073410;28;20067;-86
2023/09/16 08:32:32;;;;;;;4.25;3.35;;;;;;;;;;5070850;28;20100;-85
2023/09/16 08:34:57;;;;;;;3.65;3.05;;;;;;;;;;5090824;28;20042;-84
2023/09/16 08:37:23;;;;;;;6.20;3.13;;;;;;;;;;5072080;28;20059;-84
2023/09/16 08:39:48;;;;;;;3.28;2.70;;;;;;;;;;5076488;28;20754;-83
2023/09/16 08:42:14;;;;;;;4.63;3.22;;;;;;;;;;5077988;28;20056;-83
2023/09/16 08:44:43;;;;;;;6.32;3.10;;;;;;;;;;5075505;28;20383;-85
2023/09/16 08:47:29;;;;;;;6.00;3.17;;;;;;;;;;5076168;28;20353;-86
2023/09/16 08:50:02;;;;;;;4.72;2.90;;;;;;;;;;5078627;28;20113;-83
2023/09/16 08:52:33;;;;;;;3.75;3.00;;;;;;;;;;5064685;28;20044;-87
2023/09/16 08:54:59;;;;;;;6.35;3.00;;;;;;;;;;5085429;28;20013;-85
2023/09/16 08:57:25;;;;;;;3.28;2.55;;;;;;;;;;5078538;28;20147;-86
2023/09/16 08:59:53;;;;;;;6.22;3.13;;;;;;;;;;5092356;28;20091;-86
2023/09/16 09:02:18;;;;;;;4.32;3.17;;;;;;;;;;5071399;28;20057;-83
2023/09/16 09:04:44;;;;;;;4.07;3.15;;;;;;;;;;5072427;28;20044;-84
2023/09/16 09:07:11;;;;;;;5.40;3.10;;;;;;;;;;5066452;28;20033;-84
2023/09/16 09:09:37;;;;;;;4.57;3.15;;;;;;;;;;5072264;28;20029;-85
2023/09/16 09:12:04;;;;;;;4.82;3.25;;;;;;;;;;5078875;28;20050;-86
2023/09/16 09:14:31;;;;;;;4.70;3.15;;;;;;;;;;5075143;28;20071;-86
2023/09/16 09:17:00;;;;;;;5.20;3.53;;;;;;;;;;5082876;28;20021;-87
2023/09/16 09:19:26;;;;;;;4.00;3.10;;;;;;;;;;5073530;28;20038;-86
2023/09/16 09:21:53;;;;;;;4.90;3.40;;;;;;;;;;5072927;28;20056;-84
2023/09/16 09:24:19;;;;;;;3.92;2.83;;;;;;;;;;5073634;28;20040;-84
2023/09/16 09:26:44;;;;;;;4.10;3.20;;;;;;;;;;5079394;28;20028;-84
2023/09/16 09:29:12;;;;;;;6.70;3.30;;;;;;;;;;5068414;28;20033;-84
2023/09/16 09:31:38;;;;;;;4.93;3.25;;;;;;;;;;5062131;28;20032;-84
2023/09/16 09:34:04;;;;;;;3.58;2.92;;;;;;;;;;5062936;28;20375;-85
2023/09/16 09:36:32;;;;;;;3.47;3.17;;;;;;;;;;5063664;28;20074;-86
2023/09/16 09:38:58;;;;;;;3.97;3.20;;;;;;;;;;5073524;28;20032;-87
2023/09/16 09:41:23;;;;;;;5.03;2.85;;;;;;;;;;5086869;28;20093;-84
2023/09/16 09:43:53;;;;;;;5.13;3.10;;;;;;;;;;5070700;28;20028;-84
2023/09/16 09:46:20;;;;;;;4.88;2.90;;;;;;;;;;5069617;28;20044;-84
2023/09/16 09:48:46;;;;;;;3.53;2.97;;;;;;;;;;5068204;28;20057;-84
2023/09/16 09:51:15;;;;;;;3.42;2.95;;;;;;;;;;5081687;28;20047;-84
2023/09/16 09:53:41;;;;;;;4.80;3.22;;;;;;;;;;5061497;28;20055;-86
2023/09/16 09:56:06;;;;;;;4.22;2.90;;;;;;;;;;5063556;28;20032;-86
2023/09/16 09:58:32;;;;;;;4.45;3.17;;;;;;;;;;5072466;28;20094;-86
2023/09/16 10:00:58;;;;;;;5.05;2.80;;;;;;;;;;5074389;28;20058;-84
2023/09/16 10:03:24;;;;;;;3.42;2.67;;;;;;;;;;5069702;28;20056;-85
2023/09/16 10:05:50;;;;;;;4.40;3.10;;;;;;;;;;5075242;28;20036;-85
2023/09/16 10:08:15;;;;;;;3.10;2.67;;;;;;;;;;5078437;28;20032;-86
2023/09/16 10:10:41;;;;;;;5.05;3.13;;;;;;;;;;5079024;28;20042;-86
2023/09/16 10:13:08;;;;;;;3.17;2.60;;;;;;;;;;5061144;28;20012;-86
2023/09/16 10:15:36;;;;;;;3.03;2.58;;;;;;;;;;5063672;28;20426;-86
2023/09/16 10:18:03;;;;;;;3.72;2.40;;;;;;;;;;5070884;28;20043;-87
2023/09/16 10:20:31;;;;;;;4.20;2.70;;;;;;;;;;5086532;28;20074;-85
2023/09/16 10:22:57;;;;;;;3.28;2.80;;;;;;;;;;5071232;28;20045;-84
2023/09/16 10:25:23;;;;;;;8.23;2.80;;;;;;;;;;5078514;28;20082;-83
2023/09/16 10:28:02;;;;;;;3.25;2.70;;;;;;;;;;5070116;28;20032;-84
2023/09/16 10:30:30;;;;;;;5.63;2.65;;;;;;;;;;5079317;28;20033;-83
2023/09/16 10:33:00;;;;;;;7.80;3.35;;;;;;;;;;5061134;28;20029;-84
2023/09/16 10:35:30;;;;;;;4.32;3.08;;;;;;;;;;5066028;28;20028;-85
2023/09/16 10:37:58;;;;;;;4.93;3.08;;;;;;;;;;5067788;28;20031;-86
2023/09/16 10:40:25;;;;;;;6.00;3.10;;;;;;;;;;5073373;28;20090;-86
2023/09/16 10:42:52;;;;;;;7.85;3.28;;;;;;;;;;5065099;28;20029;-87
2023/09/16 10:45:19;;;;;;;4.20;3.10;;;;;;;;;;5062818;28;20013;-84
2023/09/16 10:47:49;;;;;;;4.93;3.40;;;;;;;;;;5066445;28;20024;-84
2023/09/16 10:50:16;;;;;;;3.55;3.08;;;;;;;;;;5064464;28;20033;-86
2023/09/16 10:52:51;;;;;;;4.18;3.40;;;;;;;;;;5068767;28;20029;-84
2023/09/16 10:55:33;;;;;;;7.53;3.30;;;;;;;;;;5064257;28;20041;-84
2023/09/16 10:58:05;;;;;;;4.22;3.78;;;;;;;;;;5073536;28;20048;-84
2023/09/16 11:00:37;;;;;;;4.97;3.57;;;;;;;;;;5077549;28;20086;-84
2023/09/16 11:03:05;;;;;;;3.92;3.10;;;;;;;;;;5070537;28;20020;-83
2023/09/16 11:05:31;;;;;;;5.38;3.40;;;;;;;;;;5075317;28;20041;-84
2023/09/16 11:07:57;;;;;;;4.18;3.47;;;;;;;;;;5076003;28;20040;-86
2023/09/16 11:10:23;;;;;;;3.85;3.00;;;;;;;;;;5062994;28;20087;-86
2023/09/16 11:12:50;;;;;;;3.78;3.10;;;;;;;;;;5066303;28;20037;-87
2023/09/16 11:15:17;;;;;;;3.85;2.78;;;;;;;;;;5060824;28;20069;-86
2023/09/16 11:17:42;;;;;;;3.90;2.92;;;;;;;;;;5077126;28;20066;-84
2023/09/16 11:20:20;;;;;;;4.60;3.20;;;;;;;;;;5072693;28;20032;-84
2023/09/16 11:22:48;;;;;;;4.43;3.00;;;;;;;;;;5068885;28;20494;-83
2023/09/16 11:25:17;;;;;;;4.10;2.83;;;;;;;;;;5062053;28;20032;-85
2023/09/16 11:27:46;;;;;;;3.40;2.92;;;;;;;;;;5067507;28;20070;-84
2023/09/16 11:30:15;;;;;;;4.57;2.90;;;;;;;;;;5080228;28;20059;-84
2023/09/16 11:32:56;;;;;;;3.47;2.70;;;;;;;;;;5062936;28;20055;-86
2023/09/16 11:35:23;;;;;;;3.38;2.97;;;;;;;;;;5066992;28;20054;-84
2023/09/16 11:37:48;;;;;;;6.15;2.90;;;;;;;;;;5074377;28;20036;-86
2023/09/16 11:40:14;;;;;;;4.47;3.10;;;;;;;;;;5069879;28;20035;-87
2023/09/16 11:42:40;;;;;;;3.40;2.97;;;;;;;;;;5065833;28;20033;-84
2023/09/16 11:45:06;;;;;;;4.15;2.95;;;;;;;;;;5070359;28;20068;-84
2023/09/16 11:47:32;;;;;;;4.28;3.10;;;;;;;;;;5069872;28;20533;-83
2023/09/16 11:49:58;;;;;;;3.15;2.85;;;;;;;;;;5065034;28;20138;-84
2023/09/16 11:52:24;;;;;;;3.00;2.65;;;;;;;;;;5076481;28;20031;-84
2023/09/16 11:54:51;;;;;;;6.25;2.90;;;;;;;;;;5062231;28;20037;-86
2023/09/16 11:57:17;;;;;;;4.45;3.03;;;;;;;;;;5078539;28;20034;-86
2023/09/16 11:59:46;;;;;;;5.05;3.03;;;;;;;;;;5074412;28;20394;-86
2023/09/16 12:02:11;;;;;;;3.58;3.00;;;;;;;;;;5068631;28;20033;-84
2023/09/16 12:04:38;;;;;;;3.22;2.78;;;;;;;;;;5067757;28;20040;-84
2023/09/16 12:07:04;;;;;;;3.70;2.80;;;;;;;;;;5071668;28;20053;-84
2023/09/16 12:09:32;;;;;;;3.33;2.97;;;;;;;;;;5080450;28;20033;-84
2023/09/16 12:11:58;;;;;;;6.78;2.97;;;;;;;;;;5067555;28;20036;-84
2023/09/16 12:14:23;;;;;;;3.42;2.80;;;;;;;;;;5069862;28;20021;-86
2023/09/16 12:16:52;;;;;;;3.15;2.70;;;;;;;;;;5072010;28;20229;-86
2023/09/16 12:19:18;;;;;;;3.45;2.72;;;;;;;;;;5064278;28;20041;-87
2023/09/16 12:21:47;;;;;;;3.63;2.50;;;;;;;;;;5067699;28;20024;-84
2023/09/16 12:24:21;;;;;;;4.07;2.60;;;;;;;;;;5070361;28;20035;-84
2023/09/16 12:26:48;;;;;;;5.35;2.40;;;;;;;;;;5072051;28;20032;-84
2023/09/16 12:29:13;;;;;;;3.97;2.55;;;;;;;;;;5085216;28;20036;-84
2023/09/16 12:31:39;;;;;;;3.28;2.50;;;;;;;;;;5067641;28;20100;-84
2023/09/16 12:34:04;;;;;;;2.72;2.38;;;;;;;;;;5064890;28;20048;-84
2023/09/16 12:36:30;;;;;;;3.67;2.50;;;;;;;;;;5065970;28;20037;-85
2023/09/16 12:39:01;;;;;;;5.28;2.65;;;;;;;;;;5065933;28;20033;-86
2023/09/16 12:41:27;;;;;;;3.10;2.53;;;;;;;;;;5066907;28;20048;-86
2023/09/16 12:43:55;;;;;;;3.88;2.75;;;;;;;;;;5064629;28;20394;-84
2023/09/16 12:46:21;;;;;;;3.55;2.70;;;;;;;;;;5076228;28;20063;-84
2023/09/16 12:48:49;;;;;;;4.63;2.80;;;;;;;;;;5070116;28;20068;-83
2023/09/16 12:51:19;;;;;;;6.25;2.85;;;;;;;;;;5067923;28;20024;-84
2023/09/16 12:53:44;;;;;;;4.15;2.67;;;;;;;;;;5066718;28;20056;-83
2023/09/16 12:56:16;;;;;;;3.25;2.72;;;;;;;;;;5062925;28;20048;-84
2023/09/16 12:58:42;;;;;;;3.28;2.80;;;;;;;;;;5063212;28;20060;-85
2023/09/16 13:01:08;;;;;;;2.83;2.63;;;;;;;;;;5066688;28;20037;-85
2023/09/16 13:03:38;;;;;;;3.10;2.63;;;;;;;;;;5061466;28;20364;-86
2023/09/16 13:06:04;;;;;;;3.47;3.00;;;;;;;;;;5069537;28;20037;-83
2023/09/16 13:08:30;;;;;;;4.80;2.78;;;;;;;;;;5085721;28;20036;-83
2023/09/16 13:10:55;;;;;;;4.15;2.95;;;;;;;;;;5066804;28;20111;-83
2023/09/16 13:13:22;;;;;;;5.15;3.05;;;;;;;;;;5062901;28;20051;-83
2023/09/16 13:15:49;;;;;;;3.42;2.80;;;;;;;;;;5065300;28;20040;-83
2023/09/16 13:18:15;;;;;;;7.47;3.10;;;;;;;;;;5061828;28;20059;-85
2023/09/16 13:20:42;;;;;;;4.82;2.92;;;;;;;;;;5063954;28;20371;-86
2023/09/16 13:23:18;;;;;;;3.67;2.70;;;;;;;;;;5066399;28;20041;-85
2023/09/16 13:25:43;;;;;;;3.10;2.72;;;;;;;;;;5072681;28;20040;-86
2023/09/16 13:28:09;;;;;;;5.53;2.80;;;;;;;;;;5070698;28;20665;-83
2023/09/16 13:30:36;;;;;;;4.72;2.80;;;;;;;;;;5068395;28;20082;-83
2023/09/16 13:33:04;;;;;;;3.97;2.80;;;;;;;;;;5065152;28;20024;-86
2023/09/16 13:35:29;;;;;;;3.75;2.88;;;;;;;;;;5065136;28;20504;-84
2023/09/16 13:37:55;;;;;;;3.47;2.75;;;;;;;;;;5063347;28;20061;-84
2023/09/16 13:40:22;;;;;;;4.38;2.55;;;;;;;;;;5063362;28;20071;-82
2023/09/16 13:42:48;;;;;;;6.18;2.50;;;;;;;;;;5045675;28;20390;-82
2023/09/16 13:45:13;;;;;;;3.20;2.70;;;;;;;;;;5067351;28;20117;-81
2023/09/16 13:47:39;;;;;;;3.22;2.88;;;;;;;;;;5065377;28;20474;-82
2023/09/16 13:50:05;;;;;;;3.28;2.63;;;;;;;;;;5062669;28;20032;-84
2023/09/16 13:52:31;;;;;;;5.25;2.90;;;;;;;;;;5067111;28;20033;-83
2023/09/16 13:54:56;;;;;;;3.67;2.75;;;;;;;;;;5067503;28;20032;-81
2023/09/16 13:57:22;;;;;;;4.15;2.83;;;;;;;;;;5061498;28;20060;-84
2023/09/16 13:59:47;;;;;;;3.00;2.63;;;;;;;;;;5061264;28;20028;-83
2023/09/16 14:02:13;;;;;;;3.35;2.55;;;;;;;;;;5056594;28;20116;-83
2023/09/16 14:04:38;;;;;;;3.53;2.78;;;;;;;;;;5071810;28;20033;-83
2023/09/16 14:07:04;;;;;;;4.22;2.47;;;;;;;;;;5086983;28;20028;-83
2023/09/16 14:09:29;;;;;;;5.43;2.80;;;;;;;;;;5068758;28;20056;-83
2023/09/16 14:11:55;;;;;;;3.30;2.75;;;;;;;;;;5063363;28;20056;-83
2023/09/16 14:14:21;;;;;;;3.78;2.80;;;;;;;;;;5063843;28;20053;-83
2023/09/16 14:16:46;;;;;;;3.13;2.58;;;;;;;;;;5063362;28;20449;-83
2023/09/16 14:19:13;;;;;;;2.90;2.42;;;;;;;;;;5070176;28;20123;-84
2023/09/16 14:21:39;;;;;;;4.28;2.47;;;;;;;;;;5077337;28;20033;-83
2023/09/16 14:24:05;;;;;;;3.33;2.33;;;;;;;;;;5070074;28;20039;-83
2023/09/16 14:26:30;;;;;;;2.60;2.38;;;;;;;;;;5063248;28;20413;-83
2023/09/16 14:28:56;;;;;;;2.72;2.42;;;;;;;;;;5070359;28;20055;-84
2023/09/16 14:31:21;;;;;;;3.70;2.55;;;;;;;;;;5048807;28;20028;-83
2023/09/16 14:33:47;;;;;;;2.80;2.40;;;;;;;;;;5066485;28;20056;-85
2023/09/16 14:36:12;;;;;;;2.40;2.20;;;;;;;;;;5065226;28;20025;-85
2023/09/16 14:38:38;;;;;;;2.70;2.30;;;;;;;;;;5063884;28;20139;-84
2023/09/16 14:41:06;;;;;;;2.95;2.45;;;;;;;;;;5078676;28;20071;-85